createdAt,value
2019-03-06T00:02:00.170Z,7.00
2019-03-06T00:04:30.809Z,7.00
2019-03-06T00:07:01.373Z,7.00
2019-03-06T00:09:31.924Z,7.10
2019-03-06T00:12:02.329Z,7.00
2019-03-06T00:14:33.057Z,7.00
2019-03-06T00:17:03.499Z,7.00
2019-03-06T00:19:33.795Z,6.90
2019-03-06T00:22:05.677Z,6.90
2019-03-06T00:24:36.216Z,6.90
2019-03-06T00:27:07.466Z,6.80
2019-03-06T00:29:38.423Z,6.80
2019-03-06T00:32:10.920Z,6.80
2019-03-06T00:34:41.512Z,6.70
2019-03-06T00:37:11.859Z,6.70
2019-03-06T00:39:49.753Z,6.70
2019-03-06T00:42:20.579Z,6.70
2019-03-06T00:44:50.921Z,6.70
2019-03-06T00:47:22.533Z,6.70
2019-03-06T00:49:53.165Z,6.60
2019-03-06T00:52:29.582Z,6.50
2019-03-06T00:55:00.080Z,6.40
2019-03-06T00:57:30.933Z,6.30
2019-03-06T01:00:01.241Z,6.30
2019-03-06T01:02:32.055Z,6.40
2019-03-06T01:05:02.425Z,6.40
2019-03-06T01:07:32.875Z,6.40
2019-03-06T01:10:03.303Z,6.40
2019-03-06T01:12:34.201Z,6.40
2019-03-06T01:15:04.479Z,6.30
2019-03-06T01:17:35.177Z,6.40
2019-03-06T01:20:06.632Z,6.30
2019-03-06T01:22:37.085Z,6.40
2019-03-06T01:25:09.099Z,6.20
2019-03-06T01:27:41.613Z,6.30
2019-03-06T01:30:14.409Z,6.30
2019-03-06T01:32:46.529Z,6.30
2019-03-06T01:35:31.497Z,6.30
2019-03-06T01:38:20.805Z,6.30
2019-03-06T01:41:08.433Z,6.20
2019-03-06T01:43:51.608Z,6.30
2019-03-06T01:46:24.957Z,6.20
2019-03-06T01:48:55.631Z,6.20
2019-03-06T01:51:26.167Z,6.20
2019-03-06T01:53:57.859Z,6.10
2019-03-06T01:56:28.189Z,6.00
2019-03-06T01:58:58.776Z,6.00
2019-03-06T02:01:29.393Z,5.90
2019-03-06T02:04:01.190Z,5.90
2019-03-06T02:06:32.337Z,5.80
2019-03-06T02:09:03.243Z,5.70
2019-03-06T02:11:33.691Z,5.70
2019-03-06T02:14:04.493Z,5.60
2019-03-06T02:16:34.961Z,5.60
2019-03-06T02:19:05.972Z,5.70
2019-03-06T02:21:36.654Z,5.70
2019-03-06T02:24:07.281Z,5.90
2019-03-06T02:26:37.815Z,5.80
2019-03-06T02:29:08.355Z,5.90
2019-03-06T02:31:40.807Z,5.80
2019-03-06T02:34:11.337Z,5.80
2019-03-06T02:36:41.742Z,5.70
2019-03-06T02:39:12.225Z,5.70
2019-03-06T02:41:42.954Z,5.80
2019-03-06T02:44:16.482Z,5.70
2019-03-06T02:46:47.075Z,5.70
2019-03-06T02:49:17.718Z,5.60
2019-03-06T02:51:48.305Z,5.70
2019-03-06T02:54:20.504Z,5.70
2019-03-06T02:56:51.078Z,5.60
2019-03-06T02:59:50.566Z,5.50
2019-03-06T03:02:38.381Z,5.50
2019-03-06T03:05:16.058Z,5.40
2019-03-06T03:07:46.502Z,5.40
2019-03-06T03:10:18.256Z,5.40
2019-03-06T03:12:48.766Z,5.30
2019-03-06T03:15:20.264Z,5.30
2019-03-06T03:17:50.726Z,5.20
2019-03-06T03:20:21.415Z,5.20
2019-03-06T03:22:51.786Z,5.20
2019-03-06T03:25:24.564Z,5.30
2019-03-06T03:27:55.753Z,5.30
2019-03-06T03:30:26.091Z,5.20
2019-03-06T03:32:56.487Z,5.30
2019-03-06T03:35:26.860Z,5.40
2019-03-06T03:37:57.731Z,5.30
2019-03-06T03:40:28.316Z,5.30
2019-03-06T03:43:00.108Z,5.30
2019-03-06T03:45:31.607Z,5.20
2019-03-06T03:48:01.969Z,5.30
2019-03-06T03:50:32.412Z,5.30
2019-03-06T03:53:02.768Z,5.30
2019-03-06T03:55:33.329Z,5.30
2019-03-06T03:58:04.123Z,5.40
2019-03-06T04:00:34.649Z,5.40
2019-03-06T04:03:05.633Z,5.50
2019-03-06T04:05:36.000Z,5.50
2019-03-06T04:08:06.630Z,5.60
2019-03-06T04:10:37.367Z,5.60
2019-03-06T04:13:10.450Z,5.70
2019-03-06T04:15:40.958Z,5.70
2019-03-06T04:18:11.840Z,5.70
2019-03-06T04:20:42.706Z,5.60
2019-03-06T04:23:13.507Z,5.70
2019-03-06T04:25:44.263Z,5.70
2019-03-06T04:28:14.804Z,5.70
2019-03-06T04:30:45.456Z,5.80
2019-03-06T04:33:16.032Z,5.80
2019-03-06T04:35:46.959Z,5.80
2019-03-06T04:38:17.424Z,5.70
2019-03-06T04:40:48.010Z,5.70
2019-03-06T04:43:18.647Z,5.80
2019-03-06T04:45:49.172Z,5.80
2019-03-06T04:48:19.693Z,5.90
2019-03-06T04:50:50.182Z,5.80
2019-03-06T04:53:20.755Z,5.80
2019-03-06T04:55:51.293Z,5.80
2019-03-06T04:58:23.879Z,5.90
2019-03-06T05:00:54.336Z,5.80
2019-03-06T05:03:24.764Z,5.70
2019-03-06T05:05:55.334Z,5.70
2019-03-06T05:08:28.539Z,5.60
2019-03-06T05:10:59.712Z,5.70
2019-03-06T05:13:30.259Z,5.70
2019-03-06T05:16:00.913Z,5.80
2019-03-06T05:18:44.972Z,5.70
2019-03-06T05:21:15.696Z,5.70
2019-03-06T05:23:45.953Z,5.80
2019-03-06T05:26:16.451Z,5.90
2019-03-06T05:28:46.683Z,5.70
2019-03-06T05:31:16.838Z,5.80
2019-03-06T05:33:47.020Z,5.90
2019-03-06T05:36:46.913Z,6.00
2019-03-06T05:39:17.171Z,6.00
2019-03-06T05:41:47.562Z,6.00
2019-03-06T05:44:19.404Z,6.10
2019-03-06T05:46:50.763Z,6.10
2019-03-06T05:49:21.240Z,6.20
2019-03-06T05:51:52.947Z,6.20
2019-03-06T05:54:23.360Z,6.30
2019-03-06T05:56:54.777Z,6.30
2019-03-06T05:59:25.103Z,6.20
2019-03-06T06:01:58.588Z,6.30
2019-03-06T06:04:28.995Z,6.20
2019-03-06T06:07:00.428Z,6.30
2019-03-06T06:09:31.222Z,6.20
2019-03-06T06:12:02.086Z,6.20
2019-03-06T06:14:32.961Z,6.30
2019-03-06T06:17:06.527Z,6.30
2019-03-06T06:19:37.404Z,6.30
2019-03-06T06:22:27.461Z,6.20
2019-03-06T06:24:58.170Z,6.20
2019-03-06T06:27:29.919Z,6.10
2019-03-06T06:30:01.281Z,6.10
2019-03-06T06:32:32.967Z,6.10
2019-03-06T06:35:04.215Z,6.00
2019-03-06T06:37:35.881Z,6.00
2019-03-06T06:40:06.925Z,6.10
2019-03-06T06:42:37.796Z,6.10
2019-03-06T06:45:10.362Z,6.00
2019-03-06T06:48:24.921Z,6.00
2019-03-06T06:51:12.865Z,6.10
2019-03-06T06:54:33.483Z,6.20
2019-03-06T06:57:26.917Z,6.20
2019-03-06T07:00:15.191Z,6.30
2019-03-06T07:03:19.317Z,6.40
2019-03-06T07:05:59.637Z,6.50
2019-03-06T07:08:56.139Z,6.50
2019-03-06T07:11:48.564Z,6.50
2019-03-06T07:14:37.251Z,6.40
2019-03-06T07:17:15.591Z,6.40
2019-03-06T07:19:59.684Z,6.70
2019-03-06T07:22:51.045Z,6.70
2019-03-06T07:25:48.611Z,6.70
2019-03-06T07:28:53.881Z,6.80
2019-03-06T07:31:37.946Z,6.80
2019-03-06T07:34:26.624Z,6.90
2019-03-06T07:37:02.301Z,7.00
2019-03-06T07:40:01.617Z,7.00
2019-03-06T07:42:54.921Z,7.10
2019-03-06T07:46:05.725Z,6.90
2019-03-06T07:49:13.017Z,6.90
2019-03-06T07:52:11.622Z,7.00
2019-03-06T07:55:01.187Z,7.10
2019-03-06T07:57:41.977Z,7.20
2019-03-06T08:00:16.783Z,7.10
2019-03-06T08:03:18.537Z,7.20
2019-03-06T08:05:49.585Z,7.20
2019-03-06T08:08:20.891Z,7.40
2019-03-06T08:10:52.539Z,7.30
2019-03-06T08:13:31.921Z,7.40
2019-03-06T08:16:14.942Z,7.50
2019-03-06T08:19:17.207Z,7.40
2019-03-06T08:21:56.366Z,7.60
2019-03-06T08:24:58.851Z,7.70
2019-03-06T08:27:29.713Z,7.70
2019-03-06T08:30:00.591Z,7.80
2019-03-06T08:32:32.912Z,7.90
2019-03-06T08:35:03.702Z,7.80
2019-03-06T08:37:35.109Z,8.00
2019-03-06T08:40:06.896Z,8.00
2019-03-06T08:42:37.795Z,8.10
2019-03-06T08:45:10.015Z,8.20
2019-03-06T08:48:05.393Z,8.30
2019-03-06T08:51:07.327Z,8.40
2019-03-06T08:54:01.053Z,8.60
2019-03-06T08:56:46.005Z,8.80
2019-03-06T08:59:34.531Z,8.90
2019-03-06T09:02:16.953Z,8.90
2019-03-06T09:05:06.765Z,8.90
2019-03-06T09:08:14.967Z,9.00
2019-03-06T09:11:16.857Z,8.80
2019-03-06T09:14:05.221Z,9.10
2019-03-06T09:16:55.022Z,9.10
2019-03-06T09:19:45.865Z,9.30
2019-03-06T09:22:37.043Z,9.40
2019-03-06T09:25:36.455Z,9.50
2019-03-06T09:28:20.599Z,9.70
2019-03-06T09:31:00.727Z,9.90
2019-03-06T09:33:48.063Z,10.00
2019-03-06T09:36:36.607Z,10.00
2019-03-06T09:39:32.700Z,10.10
2019-03-06T09:42:20.379Z,9.80
2019-03-06T09:44:59.856Z,10.00
2019-03-06T09:47:46.959Z,9.90
2019-03-06T09:50:31.542Z,10.00
2019-03-06T09:53:19.476Z,10.10
2019-03-06T09:56:14.632Z,10.10
2019-03-06T09:59:10.042Z,10.30
2019-03-06T10:02:06.798Z,10.30
2019-03-06T10:04:40.562Z,10.50
2019-03-06T10:07:33.853Z,10.60
2019-03-06T10:10:22.941Z,10.60
2019-03-06T10:13:00.314Z,10.50
2019-03-06T10:15:45.622Z,10.60
2019-03-06T10:18:38.195Z,10.70
2019-03-06T10:21:09.313Z,10.80
2019-03-06T10:23:40.442Z,10.90
2019-03-06T10:26:11.881Z,10.80
2019-03-06T10:28:42.801Z,10.80
2019-03-06T10:31:14.166Z,10.80
2019-03-06T10:33:45.108Z,10.80
2019-03-06T10:36:16.826Z,10.80
2019-03-06T10:38:47.864Z,10.80
2019-03-06T10:41:18.906Z,10.50
2019-03-06T10:43:53.175Z,10.60
2019-03-06T10:46:24.308Z,10.70
2019-03-06T10:48:55.280Z,10.60
2019-03-06T10:51:26.064Z,10.70
2019-03-06T10:53:57.022Z,11.00
2019-03-06T10:56:28.495Z,10.90
2019-03-06T10:58:59.842Z,11.10
2019-03-06T11:01:30.730Z,10.90
2019-03-06T11:04:26.536Z,10.80
2019-03-06T11:06:57.946Z,10.80
2019-03-06T11:09:29.406Z,11.10
2019-03-06T11:12:05.109Z,11.20
2019-03-06T11:14:41.332Z,11.20
2019-03-06T11:17:12.442Z,11.10
2019-03-06T11:19:43.420Z,11.00
2019-03-06T11:22:14.864Z,11.10
2019-03-06T11:24:45.892Z,11.30
2019-03-06T11:27:16.959Z,11.30
2019-03-06T11:29:47.892Z,11.30
2019-03-06T11:32:20.444Z,11.50
2019-03-06T11:34:51.448Z,11.60
2019-03-06T11:37:22.398Z,11.60
2019-03-06T11:39:54.475Z,11.70
2019-03-06T11:42:25.494Z,11.80
2019-03-06T11:44:56.584Z,11.80
2019-03-06T11:47:27.938Z,11.80
2019-03-06T11:49:58.891Z,12.00
2019-03-06T11:52:29.730Z,12.10
2019-03-06T11:55:06.149Z,12.10
2019-03-06T11:57:33.413Z,12.00
2019-03-06T12:00:05.370Z,12.20
2019-03-06T12:02:36.346Z,12.30
2019-03-06T12:05:07.724Z,12.20
2019-03-06T12:07:38.622Z,12.30
2019-03-06T12:10:10.318Z,12.30
2019-03-06T12:12:41.527Z,12.30
2019-03-06T12:15:13.044Z,12.20
2019-03-06T12:17:47.392Z,12.30
2019-03-06T12:20:17.956Z,12.50
2019-03-06T12:22:49.437Z,12.50
2019-03-06T12:25:22.370Z,12.60
2019-03-06T12:27:53.114Z,12.60
2019-03-06T12:30:24.191Z,12.40
2019-03-06T12:32:54.848Z,12.50
2019-03-06T12:35:26.668Z,12.60
2019-03-06T12:37:59.220Z,12.70
2019-03-06T12:40:32.226Z,12.60
2019-03-06T12:43:06.914Z,12.80
2019-03-06T12:45:37.851Z,12.80
2019-03-06T12:48:10.550Z,13.00
2019-03-06T12:50:41.484Z,13.00
2019-03-06T12:53:12.959Z,12.90
2019-03-06T12:55:44.321Z,12.90
2019-03-06T12:58:15.611Z,13.10
2019-03-06T13:00:46.738Z,13.30
2019-03-06T13:03:18.344Z,13.20
2019-03-06T13:05:49.312Z,13.10
2019-03-06T13:08:20.155Z,13.30
2019-03-06T13:10:50.760Z,13.40
2019-03-06T13:13:21.885Z,13.50
2019-03-06T13:15:53.168Z,13.60
2019-03-06T13:18:24.440Z,13.50
2019-03-06T13:20:54.895Z,13.50
2019-03-06T13:23:25.582Z,13.40
2019-03-06T13:25:57.063Z,13.50
2019-03-06T13:28:27.994Z,13.40
2019-03-06T13:30:58.947Z,13.50
2019-03-06T13:33:44.029Z,13.50
2019-03-06T13:36:15.076Z,13.60
2019-03-06T13:38:54.476Z,13.50
2019-03-06T13:41:18.092Z,13.50
2019-03-06T13:43:49.034Z,13.60
2019-03-06T13:46:20.202Z,13.60
2019-03-06T13:48:53.825Z,13.60
2019-03-06T13:51:24.599Z,13.70
2019-03-06T13:53:56.675Z,13.70
2019-03-06T13:56:27.798Z,13.80
2019-03-06T13:58:58.332Z,13.70
2019-03-06T14:01:29.664Z,13.80
2019-03-06T14:04:00.187Z,13.80
2019-03-06T14:06:30.958Z,13.70
2019-03-06T14:09:01.735Z,13.80
2019-03-06T14:11:32.885Z,13.60
2019-03-06T14:14:07.469Z,13.70
2019-03-06T14:16:38.723Z,13.70
2019-03-06T14:19:14.569Z,13.70
2019-03-06T14:21:45.689Z,13.60
2019-03-06T14:24:16.634Z,13.50
2019-03-06T14:26:47.393Z,13.40
2019-03-06T14:29:18.021Z,13.30
2019-03-06T14:31:49.542Z,13.40
2019-03-06T14:34:20.551Z,13.30
2019-03-06T14:36:51.493Z,13.30
2019-03-06T14:39:32.679Z,13.10
2019-03-06T14:42:03.686Z,13.20
2019-03-06T14:44:36.389Z,13.20
2019-03-06T14:47:10.204Z,13.20
2019-03-06T14:49:44.638Z,13.30
2019-03-06T14:52:15.447Z,13.30
2019-03-06T14:54:46.411Z,13.30
2019-03-06T14:57:17.270Z,13.50
2019-03-06T14:59:48.115Z,13.40
2019-03-06T15:02:20.202Z,13.60
2019-03-06T15:04:52.358Z,13.50
2019-03-06T15:07:22.989Z,13.60
2019-03-06T15:09:54.360Z,13.50
2019-03-06T15:12:25.392Z,13.60
2019-03-06T15:14:56.071Z,13.40
2019-03-06T15:17:26.749Z,13.50
2019-03-06T15:19:57.948Z,13.40
2019-03-06T15:22:38.196Z,13.30
2019-03-06T15:25:02.100Z,13.30
2019-03-06T15:27:33.208Z,13.30
2019-03-06T15:30:05.448Z,13.40
2019-03-06T15:32:36.473Z,13.30
2019-03-06T15:35:07.961Z,13.30
2019-03-06T15:37:39.107Z,13.40
2019-03-06T15:40:13.225Z,13.40
2019-03-06T15:42:44.305Z,13.20
2019-03-06T15:45:16.984Z,13.30
2019-03-06T15:47:48.069Z,13.30
2019-03-06T15:50:19.848Z,13.20
2019-03-06T15:52:50.629Z,13.30
2019-03-06T15:55:24.265Z,13.10
2019-03-06T15:57:55.869Z,13.30
2019-03-06T16:00:45.490Z,13.20
2019-03-06T16:03:09.387Z,13.20
2019-03-06T16:05:42.211Z,13.20
2019-03-06T16:08:13.467Z,13.20
2019-03-06T16:10:44.504Z,13.10
2019-03-06T16:13:15.400Z,13.10
2019-03-06T16:15:46.478Z,13.10
2019-03-06T16:18:17.528Z,13.10
2019-03-06T16:20:48.758Z,13.20
2019-03-06T16:23:20.157Z,13.20
2019-03-06T16:25:51.036Z,13.20
2019-03-06T16:28:21.858Z,13.20
2019-03-06T16:30:52.846Z,13.20
2019-03-06T16:33:26.420Z,13.30
2019-03-06T16:35:57.572Z,13.30
2019-03-06T16:38:28.094Z,13.20
2019-03-06T16:40:58.772Z,13.10
2019-03-06T16:43:29.531Z,13.20
2019-03-06T16:45:59.924Z,13.20
2019-03-06T16:48:30.676Z,13.20
2019-03-06T16:51:01.054Z,13.00
2019-03-06T16:53:36.130Z,13.10
2019-03-06T16:56:06.537Z,13.10
2019-03-06T16:58:36.981Z,13.10
2019-03-06T17:01:11.031Z,13.10
2019-03-06T17:03:42.926Z,13.00
2019-03-06T17:06:13.146Z,13.10
2019-03-06T17:08:43.428Z,13.10
2019-03-06T17:11:16.474Z,13.10
2019-03-06T17:13:46.944Z,13.20
2019-03-06T17:16:19.551Z,13.20
2019-03-06T17:18:51.800Z,13.30
2019-03-06T17:21:22.135Z,13.30
2019-03-06T17:23:52.386Z,13.30
2019-03-06T17:26:23.428Z,13.20
2019-03-06T17:28:53.700Z,13.30
2019-03-06T17:31:24.056Z,13.30
2019-03-06T17:33:55.710Z,13.40
2019-03-06T17:36:26.406Z,13.40
2019-03-06T17:38:58.142Z,13.40
2019-03-06T17:41:28.870Z,13.40
2019-03-06T17:44:00.770Z,13.30
2019-03-06T17:46:31.489Z,13.20
2019-03-06T17:49:01.898Z,13.20
2019-03-06T17:51:33.579Z,13.20
2019-03-06T17:54:07.133Z,13.20
2019-03-06T17:56:38.674Z,13.20
2019-03-06T17:59:11.567Z,13.10
2019-03-06T18:01:43.580Z,13.10
2019-03-06T18:04:19.107Z,13.10
2019-03-06T18:06:52.632Z,13.00
2019-03-06T18:09:28.298Z,13.10
2019-03-06T18:11:58.921Z,13.10
2019-03-06T18:14:29.325Z,13.10
2019-03-06T18:16:59.633Z,13.10
2019-03-06T18:19:30.245Z,13.00
2019-03-06T18:22:00.716Z,13.00
2019-03-06T18:24:31.103Z,13.10
2019-03-06T18:27:01.906Z,13.00
2019-03-06T18:29:32.495Z,13.00
2019-03-06T18:32:03.469Z,13.00
2019-03-06T18:34:34.366Z,13.10
2019-03-06T18:37:05.118Z,13.10
2019-03-06T18:39:36.124Z,13.10
2019-03-06T18:42:06.675Z,13.10
2019-03-06T18:44:37.398Z,13.10
2019-03-06T18:47:08.002Z,13.30
2019-03-06T18:49:38.472Z,13.20
2019-03-06T18:52:09.012Z,13.20
2019-03-06T18:54:39.839Z,13.20
2019-03-06T18:57:10.356Z,13.20
2019-03-06T18:59:40.940Z,13.20
2019-03-06T19:02:11.566Z,13.20
2019-03-06T19:04:42.164Z,13.20
2019-03-06T19:07:12.786Z,13.20
2019-03-06T19:09:45.674Z,13.10
2019-03-06T19:12:15.462Z,13.20
2019-03-06T19:14:45.934Z,13.10
2019-03-06T19:17:16.439Z,13.10
2019-03-06T19:19:47.875Z,13.00
2019-03-06T19:22:18.659Z,13.10
2019-03-06T19:24:49.487Z,13.00
2019-03-06T19:27:20.010Z,13.10
2019-03-06T19:29:50.400Z,13.10
2019-03-06T19:32:21.087Z,13.10
2019-03-06T19:34:51.740Z,13.10
2019-03-06T19:37:22.372Z,13.10
2019-03-06T19:39:53.195Z,13.20
2019-03-06T19:42:23.583Z,13.10
2019-03-06T19:44:54.134Z,13.10
2019-03-06T19:47:24.934Z,13.20
2019-03-06T19:49:55.561Z,13.20
2019-03-06T19:52:26.000Z,13.20
2019-03-06T19:54:56.718Z,13.20
2019-03-06T19:57:27.292Z,13.20
2019-03-06T19:59:58.220Z,13.20
2019-03-06T20:02:29.058Z,13.20
2019-03-06T20:04:59.472Z,13.00
2019-03-06T20:07:30.479Z,13.20
2019-03-06T20:10:01.190Z,13.20
2019-03-06T20:12:31.608Z,13.20
2019-03-06T20:15:02.074Z,13.10
2019-03-06T20:17:32.633Z,13.10
2019-03-06T20:20:03.232Z,13.20
2019-03-06T20:22:35.646Z,13.10
2019-03-06T20:25:06.687Z,13.10
2019-03-06T20:27:38.222Z,13.10
2019-03-06T20:30:09.806Z,13.10
2019-03-06T20:32:40.920Z,13.10
2019-03-06T20:35:11.558Z,12.90
2019-03-06T20:37:43.688Z,12.80
2019-03-06T20:40:14.538Z,12.90
2019-03-06T20:42:44.938Z,12.80
2019-03-06T20:45:16.703Z,13.00
2019-03-06T20:47:47.259Z,13.00
2019-03-06T20:50:18.255Z,13.00
2019-03-06T20:52:50.361Z,13.00
2019-03-06T20:55:21.144Z,13.00
2019-03-06T20:57:51.735Z,13.00
2019-03-06T21:00:22.786Z,13.10
2019-03-06T21:02:53.564Z,13.10
2019-03-06T21:05:27.302Z,13.00
2019-03-06T21:07:58.122Z,13.10
2019-03-06T21:10:28.802Z,13.10
2019-03-06T21:12:59.318Z,13.10
2019-03-06T21:15:29.793Z,13.10
2019-03-06T21:18:00.692Z,13.10
2019-03-06T21:20:34.590Z,13.10
2019-03-06T21:23:06.474Z,13.00
2019-03-06T21:25:38.938Z,13.20
2019-03-06T21:28:10.200Z,13.20
2019-03-06T21:30:43.156Z,13.10
2019-03-06T21:33:13.938Z,13.00
2019-03-06T21:35:44.753Z,13.00
2019-03-06T21:38:15.773Z,13.10
2019-03-06T21:40:46.507Z,13.20
2019-03-06T21:43:17.015Z,13.00
2019-03-06T21:45:47.329Z,13.10
2019-03-06T21:48:17.702Z,13.10
2019-03-06T21:50:48.626Z,13.10
2019-03-06T21:53:19.216Z,13.20
2019-03-06T21:55:49.801Z,13.20
2019-03-06T21:58:20.389Z,13.20
2019-03-06T22:00:51.075Z,13.10
2019-03-06T22:03:24.646Z,13.20
2019-03-06T22:05:54.815Z,13.20
2019-03-06T22:08:25.150Z,13.30
2019-03-06T22:10:55.593Z,13.30
2019-03-06T22:13:26.177Z,13.30
2019-03-06T22:15:56.718Z,13.30
2019-03-06T22:18:27.407Z,13.30
2019-03-06T22:20:58.177Z,13.10
2019-03-06T22:23:28.550Z,13.10
2019-03-06T22:25:59.093Z,13.10
2019-03-06T22:28:29.925Z,13.10
2019-03-06T22:31:00.700Z,13.10
2019-03-06T22:33:31.334Z,13.20
2019-03-06T22:36:01.688Z,13.20
2019-03-06T22:38:33.957Z,13.20
2019-03-06T22:41:04.448Z,13.10
2019-03-06T22:43:34.945Z,13.10
2019-03-06T22:46:05.387Z,13.00
2019-03-06T22:48:37.021Z,13.10
2019-03-06T22:51:07.750Z,13.10
2019-03-06T22:53:39.005Z,12.90
2019-03-06T22:56:12.160Z,13.10
2019-03-06T22:58:42.849Z,13.00
2019-03-06T23:01:28.751Z,13.00
2019-03-06T23:04:01.699Z,12.90
2019-03-06T23:06:32.413Z,12.80
2019-03-06T23:09:02.725Z,12.90
2019-03-06T23:11:33.531Z,12.90
2019-03-06T23:14:05.078Z,12.90
2019-03-06T23:16:35.379Z,12.90
2019-03-06T23:19:06.743Z,12.60
2019-03-06T23:21:37.336Z,12.80
2019-03-06T23:24:08.948Z,12.90
2019-03-06T23:26:42.793Z,12.90
2019-03-06T23:29:11.851Z,12.90
2019-03-06T23:31:42.618Z,12.80
2019-03-06T23:34:13.665Z,12.90
2019-03-06T23:36:44.302Z,12.80
2019-03-06T23:39:14.762Z,12.90
2019-03-06T23:41:45.366Z,12.80
2019-03-06T23:44:19.123Z,12.60
2019-03-06T23:46:49.858Z,12.80
2019-03-06T23:49:20.320Z,12.80
2019-03-06T23:51:57.181Z,12.80
2019-03-06T23:54:27.877Z,12.90
2019-03-06T23:57:01.238Z,13.00
2019-03-06T23:59:31.827Z,13.00
